Time;durP1;ratioP1;P1;durP2;ratioP2;P2;SDS_P1;SDS_P2;PMS_P1;PMS_P2;Temp;Humidity;BMP_temperature;BMP_pressure;BME280_temperature;BME280_humidity;BME280_pressure;Samples;Min_cycle;Max_cycle;Signal;HPM_P1;HPM_P2
2021/03/13 00:01:16;;;;;;;16.15;3.38;;;;;;;9.71;62.97;99978.56;5051722;28;20571;-86
2021/03/13 00:03:42;;;;;;;25.50;3.97;;;;;;;9.84;62.71;99972.91;5050933;28;20033;-86
2021/03/13 00:06:10;;;;;;;22.75;4.35;;;;;;;9.83;62.55;99963.22;5051302;28;20075;-85
2021/03/13 00:08:37;;;;;;;18.17;3.72;;;;;;;9.84;62.71;99955.25;5051053;28;20044;-85
2021/03/13 00:11:07;;;;;;;19.50;4.78;;;;;;;9.77;62.57;99955.47;5057072;28;20392;-85
2021/03/13 00:13:34;;;;;;;16.50;3.47;;;;;;;9.71;63.06;99941.53;5055311;28;20029;-85
2021/03/13 00:16:01;;;;;;;14.02;3.00;;;;;;;9.65;62.83;99936.44;5053862;28;20119;-91
2021/03/13 00:18:31;;;;;;;25.70;3.83;;;;;;;9.74;62.98;99932.63;5056730;28;20033;-93
2021/03/13 00:20:58;;;;;;;28.13;4.40;;;;;;;9.77;62.50;99931.66;5054587;28;20029;-84
2021/03/13 00:23:25;;;;;;;16.92;3.55;;;;;;;10.00;62.09;99931.81;5052035;28;20124;-85
2021/03/13 00:25:52;;;;;;;24.80;3.67;;;;;;;9.73;62.52;99917.66;5051900;28;20032;-86
2021/03/13 00:28:18;;;;;;;14.20;2.60;;;;;;;9.93;62.12;99909.13;5051828;28;20029;-86
2021/03/13 00:30:47;;;;;;;25.35;5.05;;;;;;;9.96;61.72;99924.88;5051209;28;20036;-85
2021/03/13 00:33:25;;;;;;;20.85;3.38;;;;;;;9.74;61.84;99902.69;5051154;28;20029;-85
2021/03/13 00:35:52;;;;;;;20.23;3.45;;;;;;;9.67;62.42;99902.88;5050629;28;20040;-85
2021/03/13 00:38:21;;;;;;;16.23;3.13;;;;;;;9.85;61.93;99903.19;5051556;28;20029;-87
2021/03/13 00:40:51;;;;;;;16.33;3.15;;;;;;;9.75;63.25;99909.72;5052855;28;20476;-87
2021/03/13 00:43:18;;;;;;;15.38;2.90;;;;;;;9.79;62.75;99891.03;5052241;28;20031;-85
2021/03/13 00:45:46;;;;;;;12.02;2.88;;;;;;;9.78;63.10;99883.13;5051055;28;20104;-85
2021/03/13 00:48:13;;;;;;;12.55;3.60;;;;;;;9.84;62.92;99873.25;5050769;28;20055;-85
2021/03/13 00:50:43;;;;;;;12.75;3.30;;;;;;;9.76;63.25;99869.09;5055000;28;20119;-85
2021/03/13 00:53:11;;;;;;;13.13;3.13;;;;;;;9.66;64.23;99877.34;5047659;28;20039;-85
2021/03/13 00:55:37;;;;;;;10.43;2.40;;;;;;;9.58;64.50;99866.13;5050474;28;20033;-85
2021/03/13 00:58:04;;;;;;;13.30;3.08;;;;;;;9.55;64.62;99853.84;5051479;28;20032;-85
2021/03/13 01:00:31;;;;;;;15.00;3.25;;;;;;;9.61;64.27;99844.88;5053814;28;20491;-85
2021/03/13 01:02:57;;;;;;;13.73;2.85;;;;;;;9.49;65.17;99847.91;5054613;28;20029;-86
2021/03/13 01:05:25;;;;;;;16.30;3.83;;;;;;;9.23;66.11;99841.66;5058019;28;20025;-86
2021/03/13 01:07:51;;;;;;;13.43;3.58;;;;;;;9.41;65.73;99828.78;5053857;28;20029;-85
2021/03/13 01:10:27;;;;;;;13.43;2.95;;;;;;;9.39;65.68;99819.13;5056854;28;20131;-85
2021/03/13 01:12:54;;;;;;;12.15;2.95;;;;;;;9.35;65.31;99822.75;5053983;28;20037;-85
2021/03/13 01:15:23;;;;;;;15.10;2.80;;;;;;;9.25;65.68;99826.63;5052584;28;20455;-86
2021/03/13 01:17:50;;;;;;;16.95;3.58;;;;;;;9.27;65.96;99808.94;5053549;28;20060;-85
2021/03/13 01:20:18;;;;;;;12.55;3.65;;;;;;;9.17;66.50;99804.84;5053573;28;20025;-85
2021/03/13 01:22:45;;;;;;;10.63;2.40;;;;;;;9.25;66.82;99800.19;5055561;28;20028;-85
2021/03/13 01:25:14;;;;;;;7.50;2.15;;;;;;;9.04;66.60;99781.44;5055107;28;20025;-86
2021/03/13 01:27:41;;;;;;;12.48;3.30;;;;;;;8.97;67.42;99771.09;5052196;28;20025;-85
2021/03/13 01:30:19;;;;;;;8.48;2.30;;;;;;;9.17;66.46;99771.38;5055932;28;20033;-82
2021/03/13 01:32:46;;;;;;;15.50;2.50;;;;;;;9.11;66.89;99752.16;5051110;28;20025;-91
2021/03/13 01:35:13;;;;;;;9.40;2.55;;;;;;;9.23;67.16;99750.03;5053765;28;20021;-85
2021/03/13 01:37:42;;;;;;;7.63;1.83;;;;;;;9.17;67.52;99734.38;5058384;28;20018;-92
2021/03/13 01:40:15;;;;;;;11.27;2.45;;;;;;;8.79;68.57;99732.91;5051749;28;20037;-85
2021/03/13 01:42:44;;;;;;;11.20;2.50;;;;;;;9.22;67.10;99708.66;5051389;28;20088;-85
2021/03/13 01:45:16;;;;;;;16.95;3.17;;;;;;;9.11;68.11;99707.25;5057082;28;20028;-86
2021/03/13 01:47:48;;;;;;;9.30;3.00;;;;;;;8.99;68.04;99688.25;5055565;28;20038;-86
2021/03/13 01:50:17;;;;;;;16.58;3.80;;;;;;;9.11;68.13;99680.81;5055269;28;20280;-86
2021/03/13 01:52:45;;;;;;;12.65;4.35;;;;;;;9.07;68.38;99675.66;5054561;28;20029;-86
2021/03/13 01:55:17;;;;;;;14.73;5.30;;;;;;;8.88;69.25;99670.13;5058863;28;20053;-86
2021/03/13 01:57:47;;;;;;;14.93;5.03;;;;;;;8.71;69.71;99651.25;5059379;28;20044;-86
2021/03/13 02:00:18;;;;;;;14.75;4.72;;;;;;;8.90;69.50;99651.56;5052920;28;20044;-86
2021/03/13 02:02:44;;;;;;;10.40;4.03;;;;;;;8.78;69.52;99626.41;5052626;28;20037;-86
2021/03/13 02:11:24;;;;;;;19.38;4.95;;;;;;;8.94;69.18;99610.91;5147606;27;20373;-86
2021/03/13 02:14:33;;;;;;;13.60;5.30;;;;;;;8.96;69.32;99595.88;5113687;28;20044;-86
2021/03/13 02:22:53;;;;;;;18.05;4.07;;;;;;;8.86;70.00;99570.66;5079796;27;20405;-88
2021/03/13 02:25:50;;;;;;;9.60;4.67;;;;;;;9.04;68.88;99538.34;5067705;28;20052;-86
2021/03/13 02:28:56;;;;;;;10.32;3.88;;;;;;;9.02;69.25;99524.34;5070346;28;20279;-87
2021/03/13 02:31:25;;;;;;;13.40;4.18;;;;;;;8.90;70.15;99512.41;5064393;28;20036;-88
2021/03/13 02:34:01;;;;;;;9.27;3.70;;;;;;;8.82;70.02;99521.53;5067235;28;20432;-87
2021/03/13 02:36:31;;;;;;;14.13;4.65;;;;;;;9.01;69.25;99496.19;5060404;28;20095;-85
2021/03/13 02:39:05;;;;;;;11.52;4.10;;;;;;;9.01;69.43;99492.69;5065385;28;20526;-89
2021/03/13 02:41:39;;;;;;;11.18;4.97;;;;;;;8.95;69.36;99490.25;5063876;28;20037;-87
2021/03/13 02:44:09;;;;;;;10.07;4.38;;;;;;;8.89;70.33;99465.78;5061895;28;20033;-87
2021/03/13 02:46:43;;;;;;;11.55;3.85;;;;;;;8.90;69.90;99451.66;5063712;28;20032;-93
2021/03/13 02:49:12;;;;;;;11.60;4.32;;;;;;;8.86;70.20;99451.81;5063494;28;20021;-86
2021/03/13 02:51:41;;;;;;;20.15;5.53;;;;;;;9.07;69.22;99423.75;5063384;28;20037;-86
2021/03/13 02:54:09;;;;;;;11.75;5.18;;;;;;;9.08;69.17;99420.22;5061737;28;20072;-87
2021/03/13 02:56:41;;;;;;;14.38;4.43;;;;;;;9.03;69.51;99408.94;5060003;28;20835;-86
2021/03/13 02:59:09;;;;;;;11.53;4.37;;;;;;;8.99;69.54;99402.06;5065852;28;20409;-89
2021/03/13 03:01:37;;;;;;;13.38;4.53;;;;;;;8.97;69.69;99386.28;5067127;28;20045;-86
2021/03/13 03:04:06;;;;;;;13.50;4.95;;;;;;;9.19;68.96;99374.91;5064693;28;20021;-86
2021/03/13 03:06:40;;;;;;;11.63;4.38;;;;;;;8.79;70.20;99368.47;5068487;28;20380;-86
2021/03/13 03:09:08;;;;;;;10.65;4.40;;;;;;;8.92;70.55;99356.50;5064823;28;20032;-86
2021/03/13 03:11:36;;;;;;;12.30;4.53;;;;;;;8.97;70.02;99351.94;5063892;28;20116;-86
2021/03/13 03:14:03;;;;;;;11.02;4.10;;;;;;;8.94;70.52;99343.25;5060454;28;20021;-87
2021/03/13 03:16:29;;;;;;;12.25;5.25;;;;;;;8.95;70.67;99332.63;5065951;28;20098;-86
2021/03/13 03:19:01;;;;;;;14.38;5.03;;;;;;;8.99;69.98;99313.09;5059187;28;20025;-87
2021/03/13 03:21:28;;;;;;;12.52;4.57;;;;;;;9.17;69.31;99310.66;5057903;28;20037;-87
2021/03/13 03:23:55;;;;;;;10.57;4.18;;;;;;;9.15;69.44;99305.44;5061443;28;20036;-87
2021/03/13 03:26:22;;;;;;;10.68;4.10;;;;;;;8.99;70.17;99302.53;5062629;28;20562;-86
2021/03/13 03:28:48;;;;;;;12.27;4.00;;;;;;;9.07;69.94;99289.00;5060051;28;20078;-87
2021/03/13 03:31:15;;;;;;;9.95;3.47;;;;;;;9.04;70.18;99271.50;5061092;28;20133;-88
2021/03/13 03:33:43;;;;;;;11.63;3.42;;;;;;;8.98;70.35;99266.47;5048874;28;20032;-86
2021/03/13 03:36:10;;;;;;;9.63;3.38;;;;;;;9.18;70.04;99235.75;5048097;28;20141;-87
2021/03/13 03:38:37;;;;;;;12.82;3.42;;;;;;;9.10;70.53;99248.41;5045380;28;20057;-86
2021/03/13 03:41:04;;;;;;;10.23;3.80;;;;;;;9.12;70.22;99228.94;5047390;28;20037;-86
2021/03/13 03:43:37;;;;;;;6.68;2.80;;;;;;;9.38;69.78;99225.25;5046104;28;20113;-87
2021/03/13 03:46:07;;;;;;;8.68;3.13;;;;;;;9.13;69.64;99212.16;5051243;28;20053;-87
2021/03/13 03:48:35;;;;;;;15.50;3.75;;;;;;;9.39;69.75;99219.06;5049612;28;20025;-86
2021/03/13 03:51:07;;;;;;;10.15;3.67;;;;;;;9.31;69.91;99205.28;5047032;28;20109;-87
2021/03/13 03:53:38;;;;;;;5.50;3.25;;;;;;;9.17;69.68;99199.69;5045892;28;20026;-88
2021/03/13 03:56:06;;;;;;;10.07;2.67;;;;;;;9.19;69.48;99219.84;5050502;28;20029;-88
2021/03/13 03:58:43;;;;;;;11.88;3.22;;;;;;;9.12;70.36;99204.28;5049375;28;20535;-87
2021/03/13 04:01:10;;;;;;;9.02;2.92;;;;;;;9.18;70.28;99201.41;5048638;28;20107;-87
2021/03/13 04:03:43;;;;;;;11.95;2.45;;;;;;;9.32;69.45;99180.56;5050320;28;20056;-86
2021/03/13 04:06:11;;;;;;;8.13;2.53;;;;;;;9.12;70.36;99177.88;5049861;28;20021;-88
2021/03/13 04:08:41;;;;;;;9.70;2.60;;;;;;;9.19;70.61;99177.56;5049315;28;20033;-89
2021/03/13 04:11:12;;;;;;;12.80;2.58;;;;;;;9.04;70.96;99155.25;5050122;28;20021;-88
2021/03/13 04:13:39;;;;;;;9.35;2.53;;;;;;;9.19;70.41;99145.00;5047648;28;20373;-88
2021/03/13 04:16:07;;;;;;;8.75;2.67;;;;;;;9.41;69.53;99123.81;5048826;28;20021;-88
2021/03/13 04:18:33;;;;;;;11.52;2.90;;;;;;;9.31;70.44;99143.59;5049341;28;20056;-88
2021/03/13 04:21:01;;;;;;;10.98;2.75;;;;;;;9.34;69.89;99131.13;5049111;28;20030;-89
2021/03/13 04:23:28;;;;;;;8.18;2.17;;;;;;;9.33;69.77;99110.94;5047924;28;20029;-88
2021/03/13 04:25:55;;;;;;;7.40;2.60;;;;;;;9.01;70.78;99121.06;5048439;28;20392;-91
2021/03/13 04:28:22;;;;;;;11.73;2.28;;;;;;;9.45;69.95;99108.69;5046421;28;20025;-88
2021/03/13 04:30:50;;;;;;;12.52;2.50;;;;;;;9.35;70.44;99103.78;5050660;28;20037;-89
2021/03/13 04:33:18;;;;;;;6.88;2.70;;;;;;;9.11;71.23;99094.25;5049685;28;20118;-88
2021/03/13 04:35:47;;;;;;;10.18;2.67;;;;;;;9.35;69.90;99087.06;5051864;28;20032;-88
2021/03/13 04:38:16;;;;;;;12.23;2.70;;;;;;;9.33;70.70;99078.34;5048090;28;20025;-85
2021/03/13 04:40:45;;;;;;;12.32;2.15;;;;;;;9.45;69.69;99066.38;5048024;28;20076;-88
2021/03/13 04:43:12;;;;;;;8.40;2.40;;;;;;;9.33;70.73;99051.91;5047146;28;20025;-86
2021/03/13 04:45:40;;;;;;;8.20;2.10;;;;;;;9.43;70.46;99062.94;5051079;28;20665;-86
2021/03/13 04:48:07;;;;;;;8.20;2.30;;;;;;;9.05;71.03;99061.03;5044601;28;20030;-86
2021/03/13 04:50:33;;;;;;;5.78;1.80;;;;;;;9.14;71.36;99049.22;5047873;28;20025;-87
2021/03/13 04:53:00;;;;;;;12.70;2.67;;;;;;;9.34;70.94;99043.91;5037186;28;20460;-87
2021/03/13 04:55:34;;;;;;;7.13;2.05;;;;;;;9.11;71.61;99025.56;5056061;28;20521;-87
2021/03/13 04:58:06;;;;;;;9.23;2.72;;;;;;;9.58;70.22;99014.66;5051321;28;20040;-88
2021/03/13 05:00:35;;;;;;;7.93;2.00;;;;;;;9.52;70.35;99007.00;5048598;28;20126;-91
2021/03/13 05:03:02;;;;;;;5.40;2.05;;;;;;;9.23;71.09;98988.91;5053985;28;20464;-87
2021/03/13 05:05:32;;;;;;;9.40;1.88;;;;;;;9.27;70.70;98994.91;5054020;28;20029;-87
2021/03/13 05:07:59;;;;;;;10.38;2.13;;;;;;;9.28;71.02;99011.63;5053957;28;20060;-87
2021/03/13 05:10:26;;;;;;;7.72;2.03;;;;;;;9.29;70.28;98978.97;5053690;28;20029;-86
2021/03/13 05:12:53;;;;;;;10.13;2.22;;;;;;;9.20;70.66;98998.75;5053725;28;20029;-86
2021/03/13 05:15:20;;;;;;;5.97;2.15;;;;;;;9.19;70.83;98970.59;5052345;28;20066;-87
2021/03/13 05:17:46;;;;;;;6.90;1.50;;;;;;;9.27;70.91;98994.91;5053890;28;20025;-87
2021/03/13 05:20:13;;;;;;;5.07;2.10;;;;;;;9.08;71.15;98997.47;5053958;28;20082;-86
2021/03/13 05:22:39;;;;;;;5.65;2.05;;;;;;;9.36;70.16;98989.19;5053418;28;20045;-86
2021/03/13 05:25:07;;;;;;;12.25;1.67;;;;;;;9.07;70.28;99043.31;5053305;28;20039;-86
2021/03/13 05:27:33;;;;;;;4.78;1.95;;;;;;;9.08;67.99;99013.34;5053539;28;20457;-88
2021/03/13 05:30:00;;;;;;;9.85;1.65;;;;;;;9.26;67.34;99011.69;5054182;28;20049;-88
2021/03/13 05:32:26;;;;;;;9.18;1.65;;;;;;;9.11;66.64;98996.50;5056576;28;20032;-88
2021/03/13 05:34:54;;;;;;;11.65;1.63;;;;;;;9.11;65.08;99088.97;5052314;28;20040;-88
2021/03/13 05:37:20;;;;;;;7.15;2.13;;;;;;;9.43;64.49;99018.84;5052181;28;20036;-88
2021/03/13 05:39:46;;;;;;;12.68;1.65;;;;;;;9.17;63.71;99041.13;5053345;28;20028;-89
2021/03/13 05:42:13;;;;;;;5.28;0.98;;;;;;;9.16;63.21;99049.97;5040930;28;20159;-88
2021/03/13 05:44:39;;;;;;;9.30;1.70;;;;;;;9.44;62.44;99070.78;5048817;28;20112;-88
2021/03/13 05:47:06;;;;;;;10.10;1.52;;;;;;;9.18;62.15;99101.00;5051748;28;20057;-88
2021/03/13 05:49:35;;;;;;;7.57;1.40;;;;;;;9.01;62.28;99073.50;5052653;28;20479;-88
2021/03/13 05:52:03;;;;;;;6.10;1.88;;;;;;;9.10;61.84;99077.53;5053616;28;20098;-88
2021/03/13 05:54:30;;;;;;;9.98;2.22;;;;;;;9.20;61.45;99065.66;5052999;28;20908;-88
2021/03/13 05:56:58;;;;;;;15.20;2.00;;;;;;;9.03;61.74;99078.72;5052263;28;20033;-88
2021/03/13 05:59:25;;;;;;;10.68;2.10;;;;;;;9.00;61.04;99071.78;5052223;28;20403;-88
2021/03/13 06:01:52;;;;;;;15.40;2.42;;;;;;;9.49;59.30;99073.25;5052614;28;20037;-88
2021/03/13 06:04:18;;;;;;;18.02;2.08;;;;;;;9.01;60.06;99083.19;5053743;28;20478;-88
2021/03/13 06:06:48;;;;;;;15.15;2.53;;;;;;;8.98;59.39;99137.03;5052761;28;20516;-89
2021/03/13 06:09:14;;;;;;;11.77;2.00;;;;;;;9.05;59.31;99096.22;5049896;28;20029;-88
2021/03/13 06:11:40;;;;;;;13.68;2.45;;;;;;;9.29;58.46;99097.91;5053495;28;20036;-88
2021/03/13 06:14:06;;;;;;;9.93;2.70;;;;;;;9.04;58.80;99089.22;5055005;28;20026;-88
2021/03/13 06:16:32;;;;;;;11.90;2.60;;;;;;;9.15;58.63;99114.34;5051508;28;20452;-88
2021/03/13 06:18:59;;;;;;;11.77;2.50;;;;;;;9.15;58.11;99120.47;5052040;28;20029;-88
2021/03/13 06:29:36;;;;;;;13.50;3.08;;;;;;;9.36;58.17;99100.22;5080002;27;20188;-88
2021/03/13 06:32:12;;;;;;;15.45;3.10;;;;;;;9.53;57.64;99095.97;5064724;28;20025;-87
2021/03/13 06:34:38;;;;;;;11.30;2.33;;;;;;;9.36;57.78;99115.22;5051734;28;20032;-88
2021/03/13 06:40:06;;;;;;;17.05;3.47;;;;;;;9.26;57.56;99104.19;5089979;28;20372;-87
2021/03/13 06:42:34;;;;;;;17.80;2.92;;;;;;;9.45;58.05;99100.75;5070260;28;20106;-87
2021/03/13 06:45:06;;;;;;;21.45;2.80;;;;;;;9.12;58.10;99088.91;5064435;28;20091;-87
2021/03/13 06:53:15;;;;;;;11.82;3.03;;;;;;;9.41;58.03;99101.78;5047357;28;20435;-85
2021/03/13 06:55:41;;;;;;;20.00;3.13;;;;;;;9.45;57.93;99120.09;5030900;28;20088;-86
2021/03/13 06:58:12;;;;;;;19.83;3.70;;;;;;;9.42;58.37;99098.22;5029489;28;20053;-85
2021/03/13 07:00:39;;;;;;;28.52;4.50;;;;;;;9.30;57.77;99105.75;5029241;28;20075;-86
2021/03/13 07:03:12;;;;;;;21.50;3.95;;;;;;;9.49;57.41;99099.69;5027498;28;20076;-85
2021/03/13 07:05:42;;;;;;;21.80;3.72;;;;;;;9.54;57.81;99087.13;5029531;28;20021;-86
2021/03/13 07:13:51;;;;;;;24.45;3.63;;;;;;;9.62;56.74;99090.28;5067260;27;20410;-86
2021/03/13 07:19:11;;;;;;;21.25;3.47;;;;;;;9.55;56.10;99104.72;5069525;27;20490;-86
2021/03/13 07:21:42;;;;;;;20.40;4.28;;;;;;;9.43;56.17;99084.09;5062746;28;20518;-87
2021/03/13 07:24:12;;;;;;;17.83;3.33;;;;;;;9.69;56.21;99088.22;5049401;28;20064;-86
2021/03/13 07:26:41;;;;;;;17.90;2.85;;;;;;;9.58;56.56;99096.63;5033705;28;20432;-86
2021/03/13 07:29:11;;;;;;;21.58;4.07;;;;;;;9.84;56.14;99089.31;5036866;28;20029;-87
2021/03/13 07:31:40;;;;;;;22.85;4.22;;;;;;;9.72;55.87;99106.63;5037752;28;20453;-87
2021/03/13 07:34:12;;;;;;;19.42;3.75;;;;;;;9.70;55.34;99093.44;5038110;28;20033;-88
2021/03/13 07:36:43;;;;;;;16.25;3.45;;;;;;;9.51;56.65;99113.72;5048411;28;20030;-86
2021/03/13 07:39:16;;;;;;;26.50;5.25;;;;;;;9.75;56.49;99113.56;5033978;28;20112;-88
2021/03/13 07:41:55;;;;;;;33.25;4.63;;;;;;;9.77;56.69;99111.69;5042085;28;20022;-87
2021/03/13 07:44:22;;;;;;;22.95;5.18;;;;;;;9.79;56.87;99117.78;5039122;28;20022;-86
2021/03/13 07:46:49;;;;;;;30.58;5.57;;;;;;;9.66;57.31;99151.84;5031082;28;20451;-87
2021/03/13 07:49:17;;;;;;;39.60;5.53;;;;;;;9.86;56.63;99132.44;5051770;28;20025;-87
2021/03/13 07:51:44;;;;;;;32.38;4.45;;;;;;;9.70;57.29;99143.69;5042462;28;20113;-87
2021/03/13 07:54:11;;;;;;;28.60;4.45;;;;;;;9.67;57.58;99130.63;5032425;28;20080;-88
2021/03/13 07:56:41;;;;;;;25.30;4.90;;;;;;;9.94;57.95;99147.97;5030546;28;20029;-86
2021/03/13 07:59:12;;;;;;;27.38;4.68;;;;;;;9.93;57.80;99144.47;5034538;28;20056;-86
2021/03/13 08:07:28;;;;;;;16.23;4.57;;;;;;;9.95;56.44;99131.19;5010865;28;900385;-87
2021/03/13 08:09:55;;;;;;;22.65;4.45;;;;;;;9.99;55.71;99119.50;5045737;28;20034;-86
2021/03/13 08:12:42;;;;;;;30.98;4.70;;;;;;;10.13;55.74;99132.13;5053675;28;20064;-87
2021/03/13 08:17:50;;;;;;;25.52;4.35;;;;;;;10.19;54.72;99134.47;5085668;28;20418;-85
2021/03/13 08:20:30;;;;;;;20.42;3.55;;;;;;;10.25;53.90;99139.50;5070329;28;20028;-85
2021/03/13 08:25:57;;;;;;;23.02;5.40;;;;;;;10.23;54.11;99153.72;5051419;27;20418;-85
2021/03/13 08:28:46;;;;;;;18.80;3.50;;;;;;;10.23;53.58;99165.19;5040166;28;20103;-91
2021/03/13 08:36:53;;;;;;;15.63;3.53;;;;;;;10.49;53.10;99145.47;5113753;27;20412;-87
2021/03/13 08:39:34;;;;;;;22.38;4.47;;;;;;;10.19;53.45;99205.94;5111399;27;20028;-88
2021/03/13 08:42:01;;;;;;;25.05;4.28;;;;;;;10.36;53.18;99142.53;5105646;28;20020;-88
2021/03/13 08:47:12;;;;;;;25.85;4.38;;;;;;;10.29;54.75;99146.38;5141632;27;20368;-88
2021/03/13 08:49:40;;;;;;;44.55;5.43;;;;;;;10.32;54.92;99133.00;5146151;27;20023;-85
2021/03/13 08:54:54;;;;;;;27.67;4.82;;;;;;;10.07;55.65;99161.50;5122386;27;20897;-87
2021/03/13 09:00:20;;;;;;;40.28;6.38;;;;;;;10.44;55.11;99130.72;5074653;27;20418;-90
2021/03/13 09:02:55;;;;;;;22.57;4.50;;;;;;;10.17;54.11;99154.88;5042927;28;20026;-90
2021/03/13 09:05:53;;;;;;;18.15;4.35;;;;;;;10.30;53.44;99160.47;5039712;28;20051;-91
2021/03/13 09:08:23;;;;;;;20.13;3.47;;;;;;;10.17;51.93;99170.75;5010093;28;20188;-91
2021/03/13 09:11:33;;;;;;;22.23;4.32;;;;;;;10.31;52.19;99181.56;5031857;28;20029;-92
2021/03/13 09:14:38;;;;;;;29.25;5.03;;;;;;;10.76;52.09;99163.63;5127324;23;20041;-92
2021/03/13 09:17:16;;;;;;;29.00;5.65;;;;;;;10.40;51.74;99145.06;5068828;28;20043;-91
2021/03/13 09:20:23;;;;;;;35.92;5.18;;;;;;;10.62;51.87;99161.66;5068567;28;20090;-92
2021/03/13 09:23:36;;;;;;;29.05;5.03;;;;;;;10.44;51.70;99186.34;5055900;28;20034;-90
2021/03/13 09:32:00;;;;;;;38.35;6.20;;;;;;;10.38;50.72;99183.97;4968430;26;20049;-89
2021/03/13 09:34:42;;;;;;;20.48;5.20;;;;;;;10.42;50.44;99174.94;5005062;28;20038;-91
2021/03/13 09:37:29;;;;;;;26.52;4.80;;;;;;;10.31;50.46;99226.56;5006473;28;20114;-88
2021/03/13 09:40:17;;;;;;;19.35;3.13;;;;;;;10.05;49.77;99182.75;5001423;28;20035;-89
2021/03/13 09:42:51;;;;;;;21.00;3.65;;;;;;;10.50;49.07;99178.97;5028287;23;20065;-90
2021/03/13 09:45:23;;;;;;;11.90;3.00;;;;;;;10.59;48.30;99168.88;5028312;28;20025;-90
2021/03/13 09:47:55;;;;;;;19.13;3.55;;;;;;;10.41;48.71;99191.78;5033156;28;20065;-88
2021/03/13 09:50:31;;;;;;;23.67;3.88;;;;;;;10.39;48.44;99225.41;5049715;28;20419;-88
2021/03/13 09:53:01;;;;;;;15.55;3.38;;;;;;;10.35;47.96;99183.16;5035826;28;20057;-87
2021/03/13 09:56:08;;;;;;;19.25;3.05;;;;;;;10.46;48.87;99184.47;5028619;28;20025;-88
2021/03/13 09:58:37;;;;;;;20.85;3.88;;;;;;;10.56;49.20;99206.09;5029286;28;20033;-90
2021/03/13 10:01:11;;;;;;;17.38;4.25;;;;;;;10.38;49.32;99199.84;5030129;28;20025;-90
2021/03/13 10:03:38;;;;;;;31.55;4.13;;;;;;;10.71;48.87;99186.00;5031686;28;20464;-84
2021/03/13 10:06:04;;;;;;;14.77;3.00;;;;;;;10.41;49.57;99205.03;5031599;28;20393;-88
2021/03/13 10:09:10;;;;;;;23.02;4.65;;;;;;;10.48;49.35;99222.31;5025569;28;20042;-90
2021/03/13 10:13:15;;;;;;;;;;;;;;;;;;;;;
2021/03/13 10:23:38;;;;;;;19.17;5.45;;;;;;;10.65;48.68;99200.38;5283509;22;20503;-88
2021/03/13 10:26:08;;;;;;;20.50;4.40;;;;;;;10.66;49.23;99205.59;5030640;28;20052;-87
2021/03/13 10:29:13;;;;;;;17.60;3.30;;;;;;;10.75;48.59;99198.16;5026194;28;20025;-92
2021/03/13 10:31:40;;;;;;;22.40;3.17;;;;;;;10.77;49.11;99188.34;5029944;28;20140;-88
2021/03/13 10:34:15;;;;;;;15.35;2.88;;;;;;;10.48;49.54;99162.28;5034590;28;20061;-89
2021/03/13 10:37:07;;;;;;;16.58;3.20;;;;;;;10.55;48.05;99189.34;5031950;28;20095;-90
2021/03/13 10:40:15;;;;;;;;;;;;;;;;;;;;;
2021/03/13 10:56:18;;;;;;;21.67;3.25;;;;;;;10.57;49.54;99208.69;5048426;27;906875;-86
2021/03/13 11:01:35;;;;;;;18.00;3.00;;;;;;;10.90;49.43;99181.50;5083216;27;20409;-88
2021/03/13 11:04:01;;;;;;;18.92;2.63;;;;;;;10.75;49.12;99188.41;5052715;28;20037;-89
2021/03/13 11:09:17;;;;;;;19.40;3.25;;;;;;;10.82;49.41;99194.28;5046472;28;20419;-89
2021/03/13 11:11:44;;;;;;;17.40;2.78;;;;;;;10.83;49.49;99170.34;5040899;28;20120;-89
2021/03/13 11:14:10;;;;;;;17.60;2.92;;;;;;;10.34;49.70;99218.50;5038689;28;20037;-88
2021/03/13 11:16:37;;;;;;;12.65;2.60;;;;;;;10.44;49.99;99195.16;5058270;28;20033;-89
2021/03/13 11:19:04;;;;;;;16.33;2.78;;;;;;;10.66;49.04;99200.28;5056367;28;20044;-88
2021/03/13 11:21:30;;;;;;;15.77;2.67;;;;;;;10.46;50.96;99203.88;5068183;28;20039;-89
2021/03/13 11:23:57;;;;;;;16.08;3.60;;;;;;;10.20;54.66;99202.38;5061738;28;20029;-89
2021/03/13 11:26:24;;;;;;;15.43;3.05;;;;;;;9.94;56.02;99212.31;5069988;28;20033;-89
2021/03/13 11:28:52;;;;;;;12.25;3.53;;;;;;;9.84;56.81;99211.88;5064381;28;20151;-88
2021/03/13 11:31:19;;;;;;;15.55;3.38;;;;;;;9.72;55.84;99212.41;5043145;28;20117;-87
2021/03/13 11:33:49;;;;;;;17.48;2.88;;;;;;;10.09;54.96;99220.50;5044104;28;20488;-87
2021/03/13 11:36:16;;;;;;;20.60;4.20;;;;;;;10.08;53.66;99210.84;5044766;28;20427;-86
2021/03/13 11:38:43;;;;;;;8.05;2.28;;;;;;;10.23;52.87;99226.06;5063898;28;20036;-87
2021/03/13 11:41:10;;;;;;;11.23;2.40;;;;;;;10.30;51.92;99208.97;5049345;28;20025;-88
2021/03/13 11:43:39;;;;;;;11.93;2.33;;;;;;;10.51;51.32;99220.41;5036380;28;20411;-88
2021/03/13 11:46:06;;;;;;;13.82;2.20;;;;;;;10.59;51.37;99214.78;5045883;28;20039;-87
2021/03/13 11:48:32;;;;;;;15.70;2.67;;;;;;;10.98;50.90;99216.47;5069150;28;20025;-86
2021/03/13 11:50:58;;;;;;;15.85;2.35;;;;;;;10.72;50.38;99217.69;5069952;28;20040;-87
2021/03/13 11:53:25;;;;;;;10.02;1.88;;;;;;;10.63;50.18;99240.19;5054975;28;20021;-89
2021/03/13 11:55:51;;;;;;;11.25;2.40;;;;;;;10.79;49.59;99202.38;5049951;28;20025;-89
2021/03/13 11:58:17;;;;;;;9.10;2.50;;;;;;;10.87;50.13;99261.16;5057806;28;20032;-84
2021/03/13 12:00:44;;;;;;;11.63;2.28;;;;;;;11.25;50.17;99218.72;5070968;28;20024;-88
2021/03/13 12:03:10;;;;;;;6.70;1.70;;;;;;;11.29;48.84;99219.41;5058891;28;20065;-89
2021/03/13 12:05:39;;;;;;;10.75;1.98;;;;;;;11.31;48.95;99278.53;5062926;28;20033;-88
2021/03/13 12:08:05;;;;;;;10.35;1.92;;;;;;;11.28;48.42;99271.59;5035740;28;20550;-88
2021/03/13 12:10:34;;;;;;;9.43;2.05;;;;;;;11.37;48.90;99229.66;5052990;28;20441;-89
2021/03/13 12:13:00;;;;;;;6.20;1.67;;;;;;;11.04;48.80;99276.28;5043296;28;20388;-87
2021/03/13 12:15:27;;;;;;;4.65;1.48;;;;;;;10.40;51.24;99257.09;5049400;28;20035;-86
2021/03/13 12:17:53;;;;;;;3.70;0.95;;;;;;;10.43;51.61;99245.50;5035266;28;20498;-88
2021/03/13 12:20:19;;;;;;;5.65;1.42;;;;;;;10.43;51.95;99229.63;5028784;28;20118;-85
2021/03/13 12:22:46;;;;;;;6.70;1.85;;;;;;;10.62;52.53;99262.28;5028817;28;20092;-88
2021/03/13 12:25:12;;;;;;;10.60;2.40;;;;;;;10.66;52.91;99239.16;5031607;28;20033;-87
2021/03/13 12:27:40;;;;;;;11.25;2.72;;;;;;;11.00;52.43;99245.53;5033381;28;20412;-89
2021/03/13 12:30:08;;;;;;;12.75;2.35;;;;;;;10.99;52.62;99254.41;5026273;28;20062;-88
2021/03/13 12:32:36;;;;;;;12.70;2.70;;;;;;;10.88;52.46;99225.78;5025871;28;20057;-89
2021/03/13 12:35:04;;;;;;;14.63;2.47;;;;;;;10.96;51.87;99250.13;5029846;28;20045;-88
2021/03/13 12:37:31;;;;;;;16.85;2.85;;;;;;;11.12;51.63;99244.94;5027330;28;20301;-82
2021/03/13 12:39:57;;;;;;;7.60;2.13;;;;;;;11.07;51.34;99243.47;5024768;28;20041;-87
2021/03/13 12:42:24;;;;;;;13.75;2.42;;;;;;;11.14;50.04;99263.41;5025701;28;20034;-86
2021/03/13 12:44:50;;;;;;;11.88;2.33;;;;;;;10.95;50.62;99279.34;5026207;28;20030;-88
2021/03/13 12:47:17;;;;;;;9.00;1.60;;;;;;;11.23;49.88;99263.00;5028038;28;20091;-91
2021/03/13 12:49:43;;;;;;;9.88;2.33;;;;;;;11.46;49.10;99261.00;5025039;28;20029;-88
2021/03/13 12:52:10;;;;;;;14.18;2.75;;;;;;;11.39;49.35;99256.94;5026264;28;20469;-88
2021/03/13 12:54:36;;;;;;;5.57;1.75;;;;;;;11.60;49.00;99260.31;5021741;28;20381;-89
2021/03/13 12:57:02;;;;;;;17.25;2.95;;;;;;;12.01;48.26;99264.53;5022313;28;20030;-87
2021/03/13 12:59:29;;;;;;;13.82;2.58;;;;;;;11.63;48.85;99265.50;5024941;28;20041;-89
2021/03/13 13:01:55;;;;;;;14.43;2.40;;;;;;;11.29;49.41;99275.97;5025663;28;20025;-88
2021/03/13 13:04:21;;;;;;;12.45;2.22;;;;;;;10.84;50.12;99307.22;5025919;28;20056;-87
2021/03/13 13:06:48;;;;;;;12.02;2.40;;;;;;;11.37;49.41;99270.28;5027633;28;20041;-90
2021/03/13 13:09:14;;;;;;;7.60;1.40;;;;;;;11.17;48.72;99284.50;5023720;28;20065;-82
2021/03/13 13:11:40;;;;;;;6.85;1.73;;;;;;;10.92;49.21;99290.09;5028786;28;20029;-84
2021/03/13 13:14:09;;;;;;;13.23;2.28;;;;;;;11.00;49.03;99283.50;5019073;28;20096;-83
2021/03/13 13:16:35;;;;;;;13.70;2.08;;;;;;;11.14;49.62;99295.22;5020514;28;20052;-85
2021/03/13 13:19:04;;;;;;;11.40;2.22;;;;;;;11.25;49.25;99303.56;5024641;28;20052;-90
2021/03/13 13:21:30;;;;;;;14.57;3.67;;;;;;;11.13;49.34;99297.03;5021210;28;20135;-88
2021/03/13 13:23:56;;;;;;;5.53;1.70;;;;;;;11.23;49.71;99293.97;5031320;28;20550;-86
2021/03/13 13:26:23;;;;;;;10.70;3.17;;;;;;;11.17;49.89;99284.50;5035432;28;20033;-83